createdAt,value
2022-10-03T00:01:04.717Z,3.60
2022-10-03T00:03:46.410Z,3.47
2022-10-03T00:06:22.857Z,4.60
2022-10-03T00:08:52.977Z,4.15
2022-10-03T00:11:35.431Z,6.07
2022-10-03T00:14:34.963Z,4.82
2022-10-03T00:17:02.057Z,12.30
2022-10-03T00:19:48.046Z,8.05
2022-10-03T00:22:33.988Z,4.88
2022-10-03T00:25:01.132Z,5.22
2022-10-03T00:27:34.762Z,6.85
2022-10-03T00:30:17.532Z,7.90
2022-10-03T00:32:50.771Z,5.05
2022-10-03T00:35:20.131Z,6.25
2022-10-03T00:38:02.461Z,6.72
2022-10-03T00:40:32.674Z,5.85
2022-10-03T00:43:02.884Z,5.07
2022-10-03T00:45:49.813Z,7.82
2022-10-03T00:48:29.245Z,7.93
2022-10-03T00:51:00.963Z,6.55
2022-10-03T00:53:33.044Z,8.32
2022-10-03T00:56:03.501Z,4.90
2022-10-03T00:58:39.275Z,7.30
2022-10-03T01:01:25.355Z,8.10
2022-10-03T01:04:01.658Z,6.38
2022-10-03T01:06:48.288Z,9.32
2022-10-03T01:09:15.347Z,7.65
2022-10-03T01:11:46.819Z,7.45
2022-10-03T01:14:26.148Z,7.55
2022-10-03T01:16:59.171Z,8.13
2022-10-03T01:19:29.576Z,6.13
2022-10-03T01:22:02.893Z,6.72
2022-10-03T01:24:39.278Z,9.60
2022-10-03T01:27:08.462Z,10.18
2022-10-03T01:29:57.108Z,9.38
2022-10-03T01:32:27.848Z,6.90
2022-10-03T01:35:10.479Z,9.63
2022-10-03T01:37:40.630Z,7.82
2022-10-03T01:40:08.929Z,8.82
2022-10-03T01:42:42.837Z,8.70
2022-10-03T01:45:19.153Z,10.82
2022-10-03T01:47:51.626Z,8.15
2022-10-03T01:50:39.237Z,9.65
2022-10-03T01:53:13.520Z,8.32
2022-10-03T01:55:55.886Z,11.32
2022-10-03T01:58:27.108Z,11.13
2022-10-03T02:00:57.946Z,9.25
2022-10-03T02:03:31.169Z,12.05
2022-10-03T02:05:58.294Z,10.10
2022-10-03T02:08:48.491Z,11.38
2022-10-03T02:11:29.915Z,8.38
2022-10-03T02:14:00.004Z,9.55
2022-10-03T02:16:43.551Z,8.65
2022-10-03T02:19:22.024Z,9.93
2022-10-03T02:21:54.194Z,11.00
2022-10-03T02:24:21.304Z,9.40
2022-10-03T02:27:07.267Z,10.13
2022-10-03T02:30:03.233Z,9.10
2022-10-03T02:32:36.255Z,8.02
2022-10-03T02:35:12.015Z,9.15
2022-10-03T02:37:57.863Z,9.95
2022-10-03T02:40:40.027Z,9.75
2022-10-03T02:43:26.165Z,8.18
2022-10-03T02:46:05.449Z,9.32
2022-10-03T02:48:45.008Z,7.75
2022-10-03T02:51:15.280Z,9.75
2022-10-03T02:54:00.671Z,8.93
2022-10-03T02:59:12.811Z,10.77
2022-10-03T03:01:43.270Z,9.90
2022-10-03T03:04:29.183Z,8.98
2022-10-03T03:07:15.172Z,9.43
2022-10-03T03:09:53.697Z,11.48
2022-10-03T03:12:23.862Z,12.32
2022-10-03T03:15:08.417Z,10.88
2022-10-03T03:17:35.499Z,9.57
2022-10-03T03:20:17.346Z,9.40
2022-10-03T03:22:44.447Z,11.73
2022-10-03T03:25:11.573Z,9.48
2022-10-03T03:27:47.984Z,8.50
2022-10-03T03:30:27.665Z,10.32
2022-10-03T03:33:05.114Z,14.82
2022-10-03T03:35:41.423Z,11.73
2022-10-03T03:38:27.992Z,10.43
2022-10-03T03:41:04.252Z,10.32
2022-10-03T03:43:50.411Z,10.25
2022-10-03T03:46:19.520Z,13.13
2022-10-03T03:49:01.711Z,13.02
2022-10-03T03:51:28.798Z,13.30
2022-10-03T03:53:56.626Z,12.10
2022-10-03T03:56:38.167Z,12.23
2022-10-03T03:59:24.012Z,11.70
2022-10-03T04:02:10.064Z,10.85
2022-10-03T04:04:46.183Z,12.73
2022-10-03T04:07:21.812Z,17.08
2022-10-03T04:09:49.650Z,10.57
2022-10-03T04:12:36.965Z,10.55
2022-10-03T04:15:24.372Z,10.63
2022-10-03T04:18:15.114Z,10.35
2022-10-03T04:20:58.491Z,11.10
2022-10-03T04:23:31.837Z,18.17
2022-10-03T04:25:58.926Z,11.32
2022-10-03T04:28:41.093Z,10.63
2022-10-03T04:31:08.967Z,12.63
2022-10-03T04:33:43.263Z,12.13
2022-10-03T04:36:30.630Z,11.40
2022-10-03T04:38:57.716Z,11.35
2022-10-03T04:41:46.497Z,10.90
2022-10-03T04:44:29.429Z,15.90
2022-10-03T04:46:58.403Z,11.05
2022-10-03T04:49:26.763Z,12.23
2022-10-03T04:51:55.667Z,8.70
2022-10-03T04:54:27.031Z,12.65
2022-10-03T04:57:03.226Z,11.65
2022-10-03T04:59:48.922Z,10.20
2022-10-03T05:02:24.443Z,10.82
2022-10-03T05:05:11.594Z,10.43
2022-10-03T05:07:54.037Z,10.63
2022-10-03T05:10:29.464Z,12.48
2022-10-03T05:13:08.660Z,13.80
2022-10-03T05:15:42.064Z,9.40
2022-10-03T05:18:12.191Z,11.05
2022-10-03T05:20:48.179Z,10.43
2022-10-03T05:23:15.283Z,9.02
2022-10-03T05:25:53.447Z,11.32
2022-10-03T05:28:26.504Z,9.30
2022-10-03T05:31:07.685Z,12.18
2022-10-03T05:33:40.513Z,10.80
2022-10-03T05:36:16.399Z,11.88
2022-10-03T05:39:03.044Z,11.55
2022-10-03T05:41:33.361Z,11.48
2022-10-03T05:44:06.067Z,12.65
2022-10-03T05:46:48.830Z,14.25
2022-10-03T05:49:24.689Z,19.38
2022-10-03T05:52:18.141Z,11.93
2022-10-03T05:54:55.992Z,12.65
2022-10-03T05:57:47.611Z,12.30
2022-10-03T06:00:38.084Z,12.55
2022-10-03T06:03:08.894Z,11.52
2022-10-03T06:05:36.383Z,11.02
2022-10-03T06:08:30.444Z,9.60
2022-10-03T06:11:03.848Z,10.68
2022-10-03T06:13:31.076Z,8.82
2022-10-03T06:16:07.808Z,8.80
2022-10-03T06:18:35.196Z,8.38
2022-10-03T06:21:20.677Z,9.77
2022-10-03T06:26:22.076Z,9.52
2022-10-03T06:28:53.302Z,7.85
2022-10-03T06:31:37.881Z,7.72
2022-10-03T06:34:24.045Z,9.35
2022-10-03T06:37:01.421Z,13.18
2022-10-03T06:39:41.542Z,8.32
2022-10-03T06:42:32.285Z,8.25
2022-10-03T06:45:12.987Z,8.98
2022-10-03T06:47:40.228Z,7.40
2022-10-03T06:50:19.153Z,8.48
2022-10-03T06:52:57.095Z,9.52
2022-10-03T06:55:24.848Z,8.93
2022-10-03T06:58:10.692Z,8.38
2022-10-03T07:00:42.351Z,7.82
2022-10-03T07:03:22.050Z,8.23
2022-10-03T07:06:08.027Z,6.53
2022-10-03T07:08:47.520Z,8.27
2022-10-03T07:11:14.670Z,10.55
2022-10-03T07:14:00.242Z,9.40
2022-10-03T07:16:56.799Z,8.98
2022-10-03T07:19:44.254Z,9.23
2022-10-03T07:22:14.505Z,9.35
2022-10-03T07:24:47.771Z,8.88
2022-10-03T07:27:33.858Z,8.10
2022-10-03T07:30:16.206Z,8.27
2022-10-03T07:33:02.118Z,9.30
2022-10-03T07:36:03.438Z,9.77
2022-10-03T07:38:49.431Z,8.27
2022-10-03T07:41:35.682Z,6.28
2022-10-03T07:44:11.920Z,6.38
2022-10-03T07:46:45.088Z,7.43
2022-10-03T07:49:31.156Z,8.00
2022-10-03T07:52:17.187Z,7.50
2022-10-03T07:54:50.740Z,9.38
2022-10-03T07:57:38.093Z,10.07
2022-10-03T08:00:24.501Z,5.72
2022-10-03T08:02:56.014Z,9.52
2022-10-03T08:05:29.728Z,7.78
2022-10-03T08:08:03.926Z,9.65
2022-10-03T08:10:49.957Z,9.40
2022-10-03T08:13:23.211Z,8.77
2022-10-03T08:16:19.486Z,7.18
2022-10-03T08:18:46.635Z,8.38
2022-10-03T08:21:21.779Z,7.07
2022-10-03T08:24:01.167Z,12.77
2022-10-03T08:26:31.288Z,10.77
2022-10-03T08:29:08.784Z,12.77
2022-10-03T08:31:54.313Z,12.50
2022-10-03T08:34:36.713Z,10.75
2022-10-03T08:37:22.129Z,14.20
2022-10-03T08:42:19.296Z,9.77
2022-10-03T08:44:59.382Z,9.85
2022-10-03T08:47:32.334Z,13.65
2022-10-03T08:50:18.398Z,11.00
2022-10-03T08:52:54.645Z,9.85
2022-10-03T08:55:42.796Z,12.15
2022-10-03T08:58:29.026Z,11.20
2022-10-03T09:01:02.177Z,11.75
2022-10-03T09:03:47.327Z,7.78
2022-10-03T09:06:14.532Z,7.30
2022-10-03T09:08:58.356Z,11.57
2022-10-03T09:11:34.856Z,12.02
2022-10-03T09:14:20.921Z,11.00
2022-10-03T09:17:00.109Z,9.82
2022-10-03T09:19:36.624Z,11.90
2022-10-03T09:22:09.880Z,7.10
2022-10-03T09:24:50.667Z,8.40
2022-10-03T09:27:17.778Z,9.07
2022-10-03T09:30:08.270Z,11.40
2022-10-03T09:32:38.526Z,7.93
2022-10-03T09:35:18.046Z,5.18
2022-10-03T09:37:57.297Z,8.32
2022-10-03T09:40:42.979Z,7.57
2022-10-03T09:43:23.885Z,8.45
2022-10-03T09:45:50.964Z,6.63
2022-10-03T09:48:21.040Z,6.50
2022-10-03T09:51:06.616Z,5.97
2022-10-03T09:53:53.100Z,10.25
2022-10-03T09:56:26.341Z,9.30
2022-10-03T09:59:05.387Z,6.68
2022-10-03T10:02:04.999Z,8.45
2022-10-03T10:04:55.427Z,5.82
2022-10-03T10:07:29.386Z,9.93
2022-10-03T10:09:59.463Z,6.32
2022-10-03T10:12:26.640Z,5.25
2022-10-03T10:14:59.808Z,6.88
2022-10-03T10:17:46.114Z,5.43
2022-10-03T10:20:26.122Z,6.10
2022-10-03T10:23:11.059Z,5.18
2022-10-03T10:25:50.451Z,5.32
2022-10-03T10:28:35.965Z,6.00
2022-10-03T10:31:03.180Z,6.45
2022-10-03T10:33:39.509Z,5.65
2022-10-03T10:36:25.556Z,8.20
2022-10-03T10:38:56.758Z,7.55
2022-10-03T10:41:42.768Z,8.02
2022-10-03T10:44:25.315Z,5.93
2022-10-03T10:47:13.808Z,7.82
2022-10-03T10:49:59.976Z,7.97
2022-10-03T10:53:05.896Z,9.55
2022-10-03T10:55:48.075Z,10.48
2022-10-03T10:58:33.875Z,5.05
2022-10-03T11:01:19.685Z,5.32
2022-10-03T11:04:05.672Z,6.40
2022-10-03T11:06:42.632Z,8.85
2022-10-03T11:09:39.548Z,8.82
2022-10-03T11:12:09.496Z,6.68
2022-10-03T11:15:06.179Z,5.70
2022-10-03T11:17:42.149Z,7.32
2022-10-03T11:20:10.272Z,5.85
2022-10-03T11:22:58.920Z,5.25
2022-10-03T11:25:50.328Z,5.22
2022-10-03T11:28:35.785Z,4.82
2022-10-03T11:31:21.416Z,8.52
2022-10-03T11:33:49.070Z,2.53
2022-10-03T11:36:31.539Z,3.58
2022-10-03T11:39:19.917Z,4.25
2022-10-03T11:42:05.969Z,5.15
2022-10-03T11:44:41.849Z,5.55
2022-10-03T11:47:14.939Z,7.13
2022-10-03T11:50:01.044Z,7.60
2022-10-03T11:52:34.531Z,6.75
2022-10-03T11:55:01.678Z,6.40
2022-10-03T11:57:31.325Z,5.38
2022-10-03T12:00:25.328Z,6.22
2022-10-03T12:02:52.694Z,3.70
2022-10-03T12:05:22.931Z,5.63
2022-10-03T12:08:20.178Z,4.05
2022-10-03T12:10:59.615Z,5.80
2022-10-03T12:13:34.915Z,5.85
2022-10-03T12:16:02.525Z,7.18
2022-10-03T12:18:49.735Z,3.03
2022-10-03T12:21:23.159Z,5.97
2022-10-03T12:24:09.281Z,4.25
2022-10-03T12:26:37.611Z,7.45
2022-10-03T12:29:07.654Z,3.78
2022-10-03T12:31:55.007Z,7.03
2022-10-03T12:34:37.949Z,5.00
2022-10-03T12:37:18.559Z,4.80
2022-10-03T12:39:46.753Z,5.82
2022-10-03T12:42:23.001Z,4.60
2022-10-03T12:44:59.273Z,9.23
2022-10-03T12:47:43.869Z,4.85
2022-10-03T12:50:24.119Z,9.60
2022-10-03T12:52:59.782Z,5.53
2022-10-03T12:55:38.095Z,5.60
2022-10-03T12:58:20.007Z,7.07
2022-10-03T13:01:07.086Z,6.80
2022-10-03T13:03:52.143Z,7.00
2022-10-03T13:07:02.428Z,5.28
2022-10-03T13:09:36.396Z,8.15
2022-10-03T13:12:09.731Z,3.88
2022-10-03T13:14:55.333Z,7.32
2022-10-03T13:17:28.608Z,5.72
2022-10-03T13:20:16.096Z,5.65
2022-10-03T13:23:03.513Z,9.10
2022-10-03T13:26:11.798Z,5.43
2022-10-03T13:28:47.369Z,6.03
2022-10-03T13:31:24.896Z,4.00
2022-10-03T13:33:54.484Z,4.95
2022-10-03T13:36:27.759Z,4.72
2022-10-03T13:38:55.209Z,6.57
2022-10-03T13:41:31.482Z,6.15
2022-10-03T13:44:01.489Z,9.13
2022-10-03T13:46:42.171Z,4.38
2022-10-03T13:49:18.676Z,5.88
2022-10-03T13:51:52.916Z,3.35
2022-10-03T13:54:46.415Z,6.18
2022-10-03T13:57:18.231Z,4.30
2022-10-03T13:59:59.203Z,4.65
2022-10-03T14:02:44.433Z,6.55
2022-10-03T14:07:45.535Z,6.28
2022-10-03T14:10:26.420Z,9.50
2022-10-03T14:12:56.630Z,7.10
2022-10-03T14:15:23.827Z,6.47
2022-10-03T14:18:09.744Z,7.10
2022-10-03T14:20:42.071Z,6.30
2022-10-03T14:23:09.148Z,4.78
2022-10-03T14:25:48.699Z,3.97
2022-10-03T14:28:19.022Z,7.45
2022-10-03T14:31:08.312Z,5.10
2022-10-03T14:33:35.455Z,5.38
2022-10-03T14:36:12.235Z,6.53
2022-10-03T14:38:57.810Z,7.10
2022-10-03T14:41:33.757Z,7.80
2022-10-03T14:44:10.875Z,7.55
2022-10-03T14:46:43.102Z,4.15
2022-10-03T14:49:47.102Z,2.58
2022-10-03T14:52:23.117Z,6.05
2022-10-03T14:54:52.222Z,5.63
2022-10-03T14:57:22.182Z,3.67
2022-10-03T14:59:53.014Z,5.65
2022-10-03T15:02:20.607Z,7.32
2022-10-03T15:04:48.191Z,6.50
2022-10-03T15:07:16.294Z,5.10
2022-10-03T15:09:47.335Z,4.78
2022-10-03T15:12:14.555Z,7.38
2022-10-03T15:14:43.529Z,3.17
2022-10-03T15:17:24.977Z,5.63
2022-10-03T15:19:59.471Z,5.32
2022-10-03T15:22:29.558Z,4.90
2022-10-03T15:24:59.091Z,6.78
2022-10-03T15:27:26.914Z,3.70
2022-10-03T15:29:55.710Z,5.20
2022-10-03T15:32:33.730Z,4.07
2022-10-03T15:35:01.980Z,6.97
2022-10-03T15:37:35.321Z,7.00
2022-10-03T15:40:05.551Z,3.55
2022-10-03T15:42:34.582Z,3.65
2022-10-03T15:45:06.604Z,6.80
2022-10-03T15:47:39.838Z,4.57
2022-10-03T15:50:13.093Z,5.93
2022-10-03T15:52:44.384Z,5.50
2022-10-03T15:55:16.554Z,4.40
2022-10-03T15:57:46.644Z,8.13
2022-10-03T16:00:33.718Z,4.50
2022-10-03T16:03:23.754Z,5.63
2022-10-03T16:05:50.814Z,4.05
2022-10-03T16:08:21.748Z,4.72
2022-10-03T16:11:09.151Z,7.93
2022-10-03T16:13:41.499Z,7.05
2022-10-03T16:16:09.021Z,5.18
2022-10-03T16:18:53.091Z,6.60
2022-10-03T16:21:41.283Z,6.25
2022-10-03T16:24:16.982Z,5.25
2022-10-03T16:26:50.836Z,4.72
2022-10-03T16:29:23.793Z,4.60
2022-10-03T16:31:53.543Z,5.10
2022-10-03T16:34:22.040Z,7.18
2022-10-03T16:36:50.696Z,3.78
2022-10-03T16:39:21.629Z,4.07
2022-10-03T16:41:50.802Z,6.47
2022-10-03T16:44:20.946Z,3.50
2022-10-03T16:46:48.472Z,6.30
2022-10-03T16:49:53.098Z,4.93
2022-10-03T16:52:22.255Z,4.85
2022-10-03T16:54:52.887Z,3.72
2022-10-03T16:57:21.917Z,6.50
2022-10-03T16:59:52.083Z,4.43
2022-10-03T17:02:24.914Z,6.88
2022-10-03T17:05:01.215Z,3.20
2022-10-03T17:07:30.915Z,2.08
2022-10-03T17:10:00.484Z,5.43
2022-10-03T17:12:27.623Z,5.25
2022-10-03T17:14:56.290Z,5.57
2022-10-03T17:17:46.603Z,3.55
2022-10-03T17:20:16.256Z,4.35
2022-10-03T17:22:43.398Z,4.55
2022-10-03T17:25:19.742Z,3.25
2022-10-03T17:27:49.210Z,3.05
2022-10-03T17:30:22.196Z,3.10
2022-10-03T17:32:53.935Z,3.47
2022-10-03T17:35:44.394Z,6.30
2022-10-03T17:38:48.962Z,6.03
2022-10-03T17:41:34.158Z,3.47
2022-10-03T17:44:05.785Z,4.23
2022-10-03T17:46:52.065Z,5.10
2022-10-03T17:49:22.198Z,5.45
2022-10-03T17:51:50.809Z,5.68
2022-10-03T17:54:21.014Z,4.40
2022-10-03T17:57:00.356Z,5.32
2022-10-03T17:59:29.164Z,5.20
2022-10-03T18:02:02.815Z,5.75
2022-10-03T18:04:43.073Z,5.00
2022-10-03T18:07:13.535Z,4.85
2022-10-03T18:09:47.416Z,4.78
2022-10-03T18:12:43.742Z,5.00
2022-10-03T18:15:13.917Z,4.40
2022-10-03T18:17:49.694Z,6.13
2022-10-03T18:20:21.160Z,4.75
2022-10-03T18:22:49.711Z,7.13
2022-10-03T18:25:57.972Z,5.63
2022-10-03T18:28:45.626Z,6.65
2022-10-03T18:31:17.451Z,6.45
2022-10-03T18:33:50.980Z,8.13
2022-10-03T18:36:20.738Z,7.30
2022-10-03T18:38:48.995Z,8.85
2022-10-03T18:41:17.235Z,6.32
2022-10-03T18:43:46.046Z,6.15
2022-10-03T18:46:16.394Z,5.45
2022-10-03T18:49:03.002Z,8.07
2022-10-03T18:51:38.889Z,8.40
2022-10-03T18:54:14.642Z,12.63
2022-10-03T18:56:42.111Z,9.57
2022-10-03T18:59:21.054Z,9.18
2022-10-03T19:01:51.915Z,12.23
2022-10-03T19:04:30.379Z,10.57
2022-10-03T19:06:58.618Z,11.55
2022-10-03T19:09:25.817Z,12.43
2022-10-03T19:11:56.054Z,12.40
2022-10-03T19:14:39.037Z,11.45
2022-10-03T19:17:06.272Z,12.23
2022-10-03T19:19:33.561Z,14.77
2022-10-03T19:22:06.160Z,12.77
2022-10-03T19:24:57.223Z,11.75
2022-10-03T19:27:25.830Z,14.02
2022-10-03T19:29:57.103Z,11.23
2022-10-03T19:32:24.492Z,12.18
2022-10-03T19:34:53.022Z,15.20
2022-10-03T19:37:26.199Z,13.48
2022-10-03T19:39:53.699Z,12.30
2022-10-03T19:42:24.072Z,13.10
2022-10-03T19:44:51.616Z,14.15
2022-10-03T19:47:21.084Z,12.38
2022-10-03T19:49:51.624Z,12.70
2022-10-03T19:52:20.704Z,12.98
2022-10-03T19:54:52.849Z,11.10
2022-10-03T19:57:21.812Z,13.45
2022-10-03T20:00:02.812Z,9.65
2022-10-03T20:02:30.311Z,11.05
2022-10-03T20:04:57.926Z,12.60
2022-10-03T20:07:31.340Z,9.98
2022-10-03T20:10:01.069Z,13.15
2022-10-03T20:12:29.686Z,12.73
2022-10-03T20:15:00.968Z,12.00
2022-10-03T20:17:28.299Z,14.18
2022-10-03T20:19:58.363Z,13.40
2022-10-03T20:22:31.364Z,12.63
2022-10-03T20:24:59.363Z,12.60
2022-10-03T20:27:42.434Z,11.15
2022-10-03T20:30:42.107Z,12.43
2022-10-03T20:33:09.401Z,12.43
2022-10-03T20:35:42.732Z,12.63
2022-10-03T20:38:16.820Z,11.75
2022-10-03T20:40:51.953Z,12.48
2022-10-03T20:43:41.530Z,11.43
2022-10-03T20:46:15.838Z,10.88
2022-10-03T20:48:49.366Z,11.63
2022-10-03T20:51:23.543Z,11.88
2022-10-03T20:53:55.639Z,12.52
2022-10-03T20:56:26.583Z,13.05
2022-10-03T20:58:56.300Z,12.85
2022-10-03T21:01:24.747Z,9.98
2022-10-03T21:04:10.335Z,11.75
2022-10-03T21:06:51.928Z,11.68
2022-10-03T21:09:25.125Z,13.20
2022-10-03T21:11:54.748Z,12.40
2022-10-03T21:14:25.728Z,10.73
2022-10-03T21:16:53.162Z,10.90
2022-10-03T21:19:20.268Z,11.57
2022-10-03T21:21:55.449Z,13.45
2022-10-03T21:24:41.360Z,10.30
2022-10-03T21:27:13.335Z,14.60
2022-10-03T21:29:41.773Z,10.93
2022-10-03T21:32:12.015Z,14.68
2022-10-03T21:34:39.223Z,9.93
2022-10-03T21:37:23.607Z,11.45
2022-10-03T21:39:57.028Z,11.20
2022-10-03T21:42:30.051Z,11.70
2022-10-03T21:45:03.019Z,12.00
2022-10-03T21:47:36.226Z,13.18
2022-10-03T21:50:06.762Z,12.02
2022-10-03T21:52:45.410Z,11.88
2022-10-03T21:55:39.196Z,12.10
2022-10-03T21:58:15.811Z,10.68
2022-10-03T22:00:55.831Z,11.98
2022-10-03T22:03:25.957Z,13.07
2022-10-03T22:06:03.660Z,11.00
2022-10-03T22:08:31.801Z,12.35
2022-10-03T22:11:14.094Z,10.55
2022-10-03T22:13:43.263Z,13.77
2022-10-03T22:16:10.413Z,12.07
2022-10-03T22:18:56.315Z,8.02
2022-10-03T22:21:26.369Z,9.10
2022-10-03T22:23:57.992Z,9.70
2022-10-03T22:26:35.097Z,9.85
2022-10-03T22:29:14.380Z,13.30
2022-10-03T22:31:44.716Z,9.02
2022-10-03T22:34:14.953Z,14.48
2022-10-03T22:36:43.151Z,9.23
2022-10-03T22:39:16.047Z,9.15
2022-10-03T22:41:44.558Z,10.13
2022-10-03T22:44:13.203Z,7.45
2022-10-03T22:46:43.244Z,10.75
2022-10-03T22:49:32.240Z,8.50
2022-10-03T22:52:00.859Z,9.07
2022-10-03T22:54:33.876Z,11.30
2022-10-03T22:57:08.140Z,10.77
2022-10-03T22:59:39.109Z,9.23
2022-10-03T23:02:08.550Z,9.20
2022-10-03T23:04:40.998Z,7.78
2022-10-03T23:07:11.394Z,9.57
2022-10-03T23:10:00.191Z,9.02
2022-10-03T23:12:29.849Z,10.82
2022-10-03T23:15:00.123Z,8.45
2022-10-03T23:17:45.648Z,10.18
2022-10-03T23:20:19.790Z,6.65
2022-10-03T23:22:48.548Z,7.60
2022-10-03T23:25:29.204Z,7.88
2022-10-03T23:28:02.707Z,10.88
2022-10-03T23:30:29.831Z,7.13
2022-10-03T23:33:00.784Z,7.10
2022-10-03T23:35:30.976Z,9.10
2022-10-03T23:37:58.811Z,11.20
2022-10-03T23:40:28.083Z,7.57
2022-10-03T23:43:04.852Z,10.65
2022-10-03T23:45:34.497Z,7.85
2022-10-03T23:48:10.404Z,7.03
2022-10-03T23:50:47.979Z,7.93
2022-10-03T23:53:21.293Z,7.40
2022-10-03T23:55:48.721Z,7.97
2022-10-03T23:58:30.437Z,8.00
